createdAt,value
2022-09-06T00:01:23.559Z,3.53
2022-09-06T00:03:51.007Z,3.05
2022-09-06T00:06:19.683Z,3.30
2022-09-06T00:08:47.929Z,3.45
2022-09-06T00:11:15.816Z,2.83
2022-09-06T00:13:42.669Z,3.03
2022-09-06T00:16:13.465Z,2.58
2022-09-06T00:18:41.056Z,3.22
2022-09-06T00:21:35.668Z,3.13
2022-09-06T00:24:03.927Z,3.10
2022-09-06T00:26:30.615Z,3.50
2022-09-06T00:28:57.651Z,4.00
2022-09-06T00:31:26.622Z,3.28
2022-09-06T00:33:53.883Z,3.67
2022-09-06T00:36:21.375Z,3.20
2022-09-06T00:38:48.028Z,3.28
2022-09-06T00:41:16.238Z,2.97
2022-09-06T00:43:43.208Z,3.15
2022-09-06T00:46:18.561Z,3.00
2022-09-06T00:48:48.844Z,3.00
2022-09-06T00:51:16.984Z,2.85
2022-09-06T00:53:44.114Z,2.88
2022-09-06T00:56:11.195Z,3.20
2022-09-06T00:58:38.631Z,2.60
2022-09-06T01:01:06.865Z,3.00
2022-09-06T01:03:34.476Z,2.67
2022-09-06T01:06:26.450Z,3.15
2022-09-06T01:08:53.023Z,3.25
2022-09-06T01:11:41.580Z,3.03
2022-09-06T01:14:15.620Z,3.35
2022-09-06T01:16:51.240Z,3.05
2022-09-06T01:19:33.210Z,3.08
2022-09-06T01:22:14.728Z,3.08
2022-09-06T01:25:11.638Z,3.53
2022-09-06T01:27:44.330Z,3.20
2022-09-06T01:30:13.206Z,3.40
2022-09-06T01:32:52.076Z,2.60
2022-09-06T01:35:46.448Z,3.00
2022-09-06T01:38:14.715Z,2.78
2022-09-06T01:40:41.532Z,3.92
2022-09-06T01:43:13.124Z,3.10
2022-09-06T01:46:24.339Z,3.40
2022-09-06T01:48:54.037Z,3.15
2022-09-06T01:51:37.200Z,3.38
2022-09-06T01:54:26.648Z,3.20
2022-09-06T01:56:53.310Z,3.10
2022-09-06T01:59:32.108Z,2.90
2022-09-06T02:02:14.703Z,3.00
2022-09-06T02:04:58.390Z,2.95
2022-09-06T02:07:27.782Z,3.22
2022-09-06T02:10:00.576Z,3.38
2022-09-06T02:12:30.311Z,3.08
2022-09-06T02:15:08.927Z,3.25
2022-09-06T02:17:43.997Z,3.10
2022-09-06T02:20:17.989Z,3.17
2022-09-06T02:22:47.484Z,3.05
2022-09-06T02:25:21.919Z,2.90
2022-09-06T02:27:48.588Z,3.00
2022-09-06T02:30:15.387Z,2.88
2022-09-06T02:33:00.134Z,3.10
2022-09-06T02:35:26.952Z,3.05
2022-09-06T02:37:54.100Z,3.53
2022-09-06T02:40:20.926Z,3.72
2022-09-06T02:42:47.579Z,3.42
2022-09-06T02:45:14.281Z,3.28
2022-09-06T02:47:40.992Z,3.35
2022-09-06T02:50:08.330Z,3.08
2022-09-06T02:52:34.920Z,2.50
2022-09-06T02:55:01.652Z,4.65
2022-09-06T02:57:28.255Z,4.10
2022-09-06T02:59:54.914Z,3.40
2022-09-06T03:02:21.590Z,3.60
2022-09-06T03:04:48.373Z,3.78
2022-09-06T03:07:15.039Z,3.08
2022-09-06T03:09:41.808Z,3.25
2022-09-06T03:12:08.602Z,3.47
2022-09-06T03:14:36.271Z,3.65
2022-09-06T03:17:03.885Z,2.85
2022-09-06T03:19:30.638Z,3.90
2022-09-06T03:21:57.311Z,2.90
2022-09-06T03:24:24.092Z,2.67
2022-09-06T03:26:50.938Z,2.67
2022-09-06T03:29:17.676Z,2.70
2022-09-06T03:31:44.484Z,3.30
2022-09-06T03:34:11.420Z,2.95
2022-09-06T03:36:38.355Z,2.85
2022-09-06T03:39:04.981Z,3.97
2022-09-06T03:41:31.603Z,3.45
2022-09-06T03:43:58.287Z,3.70
2022-09-06T03:46:25.049Z,3.53
2022-09-06T03:48:51.710Z,2.85
2022-09-06T03:51:18.511Z,3.30
2022-09-06T03:53:45.311Z,3.20
2022-09-06T03:56:12.137Z,3.50
2022-09-06T03:58:38.799Z,3.50
2022-09-06T04:01:08.307Z,3.65
2022-09-06T04:03:36.057Z,3.75
2022-09-06T04:06:03.737Z,3.08
2022-09-06T04:08:30.916Z,3.47
2022-09-06T04:10:58.663Z,3.45
2022-09-06T04:13:26.761Z,3.10
2022-09-06T04:15:53.671Z,3.67
2022-09-06T04:18:21.444Z,4.65
2022-09-06T04:20:50.044Z,8.25
2022-09-06T04:23:17.379Z,6.22
2022-09-06T04:25:48.560Z,3.92
2022-09-06T04:28:15.985Z,3.53
2022-09-06T04:30:42.644Z,3.67
2022-09-06T04:33:09.368Z,3.25
2022-09-06T04:35:36.409Z,3.63
2022-09-06T04:38:05.345Z,3.17
2022-09-06T04:40:32.011Z,4.13
2022-09-06T04:42:58.649Z,4.70
2022-09-06T04:45:25.425Z,5.00
2022-09-06T04:47:52.100Z,3.75
2022-09-06T04:50:18.879Z,2.95
2022-09-06T04:52:45.553Z,3.15
2022-09-06T04:55:12.214Z,3.50
2022-09-06T04:57:42.245Z,2.72
2022-09-06T05:00:12.177Z,2.60
2022-09-06T05:02:38.975Z,2.95
2022-09-06T05:05:06.157Z,3.45
2022-09-06T05:07:32.780Z,3.20
2022-09-06T05:09:59.443Z,2.90
2022-09-06T05:12:26.089Z,2.80
2022-09-06T05:14:52.737Z,3.13
2022-09-06T05:17:19.357Z,3.58
2022-09-06T05:19:46.206Z,4.85
2022-09-06T05:22:12.831Z,6.05
2022-09-06T05:24:39.492Z,3.90
2022-09-06T05:27:07.546Z,4.75
2022-09-06T05:29:34.260Z,3.55
2022-09-06T05:32:01.160Z,3.35
2022-09-06T05:34:27.834Z,4.18
2022-09-06T05:36:54.559Z,4.03
2022-09-06T05:39:21.986Z,4.03
2022-09-06T05:41:48.599Z,4.03
2022-09-06T05:44:15.319Z,4.03
2022-09-06T05:46:43.624Z,3.90
2022-09-06T05:49:10.682Z,3.92
2022-09-06T05:51:37.292Z,8.32
2022-09-06T05:54:04.290Z,7.13
2022-09-06T05:56:30.958Z,3.88
2022-09-06T05:58:57.601Z,3.40
2022-09-06T06:01:29.872Z,3.40
2022-09-06T06:04:02.332Z,3.47
2022-09-06T06:06:31.500Z,2.95
2022-09-06T06:08:58.906Z,3.20
2022-09-06T06:11:27.314Z,2.97
2022-09-06T06:13:54.682Z,3.10
2022-09-06T06:16:22.628Z,3.33
2022-09-06T06:18:52.257Z,3.40
2022-09-06T06:21:24.343Z,2.78
2022-09-06T06:23:53.923Z,3.40
2022-09-06T06:26:20.577Z,3.03
2022-09-06T06:28:47.380Z,4.43
2022-09-06T06:31:14.678Z,2.65
2022-09-06T06:33:41.999Z,2.75
2022-09-06T06:36:21.818Z,2.60
2022-09-06T06:38:49.884Z,4.82
2022-09-06T06:41:18.726Z,3.17
2022-09-06T06:43:45.666Z,3.30
2022-09-06T06:46:18.537Z,3.63
2022-09-06T06:48:46.448Z,2.90
2022-09-06T06:51:15.623Z,2.50
2022-09-06T06:53:43.638Z,3.17
2022-09-06T06:56:27.563Z,2.75
2022-09-06T06:58:57.730Z,2.88
2022-09-06T07:01:26.372Z,2.58
2022-09-06T07:03:54.423Z,3.05
2022-09-06T07:06:22.462Z,3.17
2022-09-06T07:09:08.724Z,3.88
2022-09-06T07:11:35.345Z,3.33
2022-09-06T07:14:01.934Z,2.90
2022-09-06T07:16:30.108Z,3.03
2022-09-06T07:18:56.789Z,4.00
2022-09-06T07:21:42.183Z,2.83
2022-09-06T07:24:09.740Z,2.58
2022-09-06T07:26:38.515Z,4.32
2022-09-06T07:29:06.885Z,3.58
2022-09-06T07:34:22.150Z,3.20
2022-09-06T07:36:51.730Z,3.40
2022-09-06T07:39:18.387Z,3.40
2022-09-06T07:41:45.019Z,3.17
2022-09-06T07:44:11.736Z,3.22
2022-09-06T07:46:38.496Z,3.05
2022-09-06T07:49:06.086Z,3.58
2022-09-06T07:51:33.273Z,2.60
2022-09-06T07:54:26.410Z,2.80
2022-09-06T07:56:46.637Z,3.03
2022-09-06T07:59:13.358Z,2.80
2022-09-06T08:01:40.953Z,3.13
2022-09-06T08:04:09.547Z,2.53
2022-09-06T08:09:25.394Z,3.00
2022-09-06T08:11:52.946Z,3.60
2022-09-06T08:14:20.444Z,3.10
2022-09-06T08:16:47.477Z,3.00
2022-09-06T08:19:14.554Z,2.78
2022-09-06T08:21:41.784Z,2.63
2022-09-06T08:24:12.282Z,2.92
2022-09-06T08:26:48.546Z,3.30
2022-09-06T08:29:15.268Z,3.78
2022-09-06T08:31:45.243Z,2.90
2022-09-06T08:34:12.855Z,3.78
2022-09-06T08:36:40.456Z,3.08
2022-09-06T08:39:11.984Z,3.00
2022-09-06T08:42:08.388Z,3.20
2022-09-06T08:44:57.229Z,3.42
2022-09-06T08:47:25.056Z,3.55
2022-09-06T08:49:57.995Z,2.85
2022-09-06T08:52:27.361Z,3.25
2022-09-06T08:55:15.241Z,3.05
2022-09-06T08:57:44.705Z,3.03
2022-09-06T09:00:13.732Z,3.20
2022-09-06T09:02:51.826Z,2.90
2022-09-06T09:05:31.500Z,3.63
2022-09-06T09:08:07.325Z,3.10
2022-09-06T09:10:48.600Z,2.78
2022-09-06T09:13:24.226Z,3.08
2022-09-06T09:15:50.947Z,2.50
2022-09-06T09:18:24.366Z,3.00
2022-09-06T09:23:17.811Z,2.67
2022-09-06T09:25:46.657Z,3.35
2022-09-06T09:28:18.963Z,3.20
2022-09-06T09:30:52.389Z,3.13
2022-09-06T09:35:48.816Z,3.15
2022-09-06T09:38:26.391Z,3.88
2022-09-06T09:40:53.170Z,3.20
2022-09-06T09:43:36.151Z,3.15
2022-09-06T09:46:08.956Z,2.92
2022-09-06T09:48:36.016Z,3.15
2022-09-06T09:51:27.044Z,4.00
2022-09-06T09:53:59.624Z,4.38
2022-09-06T09:56:54.570Z,3.45
2022-09-06T09:59:26.321Z,3.17
2022-09-06T10:02:01.684Z,2.90
2022-09-06T10:04:45.680Z,3.20
2022-09-06T10:07:21.728Z,3.40
2022-09-06T10:10:01.292Z,3.72
2022-09-06T10:12:32.442Z,3.72
2022-09-06T10:15:02.451Z,3.80
2022-09-06T10:17:38.657Z,3.92
2022-09-06T10:20:10.763Z,2.90
2022-09-06T10:22:40.404Z,3.33
2022-09-06T10:25:15.876Z,3.03
2022-09-06T10:28:10.857Z,3.70
2022-09-06T10:31:16.296Z,3.60
2022-09-06T10:33:46.012Z,3.17
2022-09-06T10:36:17.325Z,3.45
2022-09-06T10:39:00.381Z,3.47
2022-09-06T10:42:01.995Z,5.07
2022-09-06T10:45:02.334Z,3.03
2022-09-06T10:47:38.803Z,2.90
2022-09-06T10:50:06.164Z,3.20
2022-09-06T10:52:43.355Z,3.28
2022-09-06T10:55:14.274Z,3.63
2022-09-06T10:58:20.668Z,3.05
2022-09-06T11:00:49.978Z,3.60
2022-09-06T11:06:11.139Z,3.13
2022-09-06T11:08:47.950Z,3.10
2022-09-06T11:11:28.790Z,3.03
2022-09-06T11:13:55.399Z,3.45
2022-09-06T11:16:39.261Z,3.30
2022-09-06T11:19:21.591Z,3.28
2022-09-06T11:22:10.058Z,3.40
2022-09-06T11:24:46.651Z,3.83
2022-09-06T11:27:26.383Z,4.03
2022-09-06T11:29:57.620Z,3.65
2022-09-06T11:32:48.905Z,3.45
2022-09-06T11:35:26.130Z,3.10
2022-09-06T11:38:07.232Z,4.18
2022-09-06T11:40:43.535Z,5.07
2022-09-06T11:43:34.830Z,4.00
2022-09-06T11:46:01.530Z,3.50
2022-09-06T11:48:34.677Z,3.60
2022-09-06T11:51:03.099Z,3.80
2022-09-06T11:53:50.048Z,4.03
2022-09-06T11:56:39.635Z,3.55
2022-09-06T11:59:24.492Z,3.30
2022-09-06T12:02:28.508Z,3.65
2022-09-06T12:07:30.291Z,3.30
2022-09-06T12:09:57.447Z,3.42
2022-09-06T12:12:46.479Z,3.78
2022-09-06T12:15:43.912Z,3.35
2022-09-06T12:18:30.586Z,4.75
2022-09-06T12:20:57.146Z,3.60
2022-09-06T12:23:36.368Z,4.20
2022-09-06T12:26:07.443Z,5.13
2022-09-06T12:28:49.869Z,3.97
2022-09-06T12:31:25.027Z,2.97
2022-09-06T12:33:54.802Z,4.20
2022-09-06T12:36:29.789Z,4.30
2022-09-06T12:39:09.901Z,3.60
2022-09-06T12:41:43.752Z,4.20
2022-09-06T12:44:13.243Z,3.95
2022-09-06T12:46:47.225Z,3.67
2022-09-06T12:49:17.688Z,3.72
2022-09-06T12:51:44.656Z,4.15
2022-09-06T12:54:28.635Z,3.13
2022-09-06T12:57:12.894Z,3.17
2022-09-06T12:59:57.085Z,4.05
2022-09-06T13:02:37.765Z,3.60
2022-09-06T13:05:08.374Z,3.00
2022-09-06T13:07:40.465Z,5.18
2022-09-06T13:10:08.889Z,5.28
2022-09-06T13:12:39.593Z,4.70
2022-09-06T13:15:32.536Z,6.88
2022-09-06T13:18:22.151Z,5.28
2022-09-06T13:21:07.548Z,4.88
2022-09-06T13:23:42.557Z,4.60
2022-09-06T13:26:09.279Z,3.88
2022-09-06T13:28:36.277Z,5.55
2022-09-06T13:31:18.321Z,7.78
2022-09-06T13:33:46.633Z,4.45
2022-09-06T13:36:33.859Z,5.15
2022-09-06T13:39:03.683Z,4.30
2022-09-06T13:41:30.277Z,4.60
2022-09-06T13:44:07.916Z,3.70
2022-09-06T13:46:38.377Z,3.63
2022-09-06T13:49:05.759Z,4.03
2022-09-06T13:51:32.453Z,3.55
2022-09-06T13:54:07.844Z,3.90
2022-09-06T13:56:35.405Z,3.63
2022-09-06T13:59:02.729Z,3.70
2022-09-06T14:01:29.648Z,4.18
2022-09-06T14:03:56.590Z,3.50
2022-09-06T14:06:23.696Z,3.90
2022-09-06T14:09:06.441Z,3.80
2022-09-06T14:11:34.440Z,4.95
2022-09-06T14:14:01.110Z,3.35
2022-09-06T14:16:27.798Z,3.80
2022-09-06T14:18:54.533Z,6.50
2022-09-06T14:21:21.292Z,4.03
2022-09-06T14:23:51.057Z,4.30
2022-09-06T14:26:19.005Z,3.03
2022-09-06T14:28:45.779Z,3.90
2022-09-06T14:31:17.888Z,3.50
2022-09-06T14:33:44.752Z,8.10
2022-09-06T14:36:14.359Z,4.53
2022-09-06T14:38:42.282Z,4.18
2022-09-06T14:41:09.710Z,4.25
2022-09-06T14:43:37.119Z,3.55
2022-09-06T14:46:12.682Z,3.75
2022-09-06T14:48:42.310Z,4.35
2022-09-06T14:51:20.860Z,4.18
2022-09-06T14:53:49.853Z,3.80
2022-09-06T14:56:16.629Z,5.72
2022-09-06T14:58:44.004Z,4.15
2022-09-06T15:01:14.968Z,3.65
2022-09-06T15:03:44.114Z,4.13
2022-09-06T15:06:11.300Z,5.28
2022-09-06T15:08:38.368Z,5.20
2022-09-06T15:11:08.238Z,4.75
2022-09-06T15:13:38.979Z,3.97
2022-09-06T15:16:09.408Z,4.18
2022-09-06T15:18:36.600Z,4.00
2022-09-06T15:21:12.173Z,4.25
2022-09-06T15:23:39.763Z,4.72
2022-09-06T15:26:08.529Z,5.13
2022-09-06T15:28:37.193Z,4.03
2022-09-06T15:31:05.693Z,5.97
2022-09-06T15:33:34.372Z,3.15
2022-09-06T15:36:06.147Z,7.53
2022-09-06T15:38:37.198Z,7.50
2022-09-06T15:41:09.340Z,6.38
2022-09-06T15:43:38.676Z,6.50
2022-09-06T15:46:05.538Z,3.90
2022-09-06T15:48:47.274Z,4.35
2022-09-06T15:51:16.654Z,4.50
2022-09-06T15:53:44.320Z,3.88
2022-09-06T15:56:14.468Z,4.20
2022-09-06T15:58:41.584Z,5.32
2022-09-06T16:01:17.440Z,3.88
2022-09-06T16:03:55.795Z,4.93
2022-09-06T16:08:55.660Z,4.22
2022-09-06T16:11:22.376Z,4.78
2022-09-06T16:13:49.522Z,4.88
2022-09-06T16:16:17.110Z,5.15
2022-09-06T16:18:47.173Z,4.07
2022-09-06T16:21:13.775Z,4.10
2022-09-06T16:23:41.977Z,8.02
2022-09-06T16:26:10.168Z,4.22
2022-09-06T16:28:37.734Z,4.13
2022-09-06T16:31:07.763Z,4.25
2022-09-06T16:33:36.541Z,4.10
2022-09-06T16:36:06.336Z,4.68
2022-09-06T16:38:33.488Z,4.30
2022-09-06T16:41:02.211Z,4.35
2022-09-06T16:43:29.196Z,3.25
2022-09-06T16:46:00.249Z,4.07
2022-09-06T16:48:28.193Z,4.10
2022-09-06T16:50:55.212Z,4.13
2022-09-06T16:53:23.712Z,4.13
2022-09-06T16:55:51.218Z,6.10
2022-09-06T16:58:17.890Z,5.57
2022-09-06T17:00:45.454Z,6.18
2022-09-06T17:03:15.478Z,6.93
2022-09-06T17:05:42.218Z,7.57
2022-09-06T17:08:10.002Z,5.93
2022-09-06T17:10:39.818Z,5.80
2022-09-06T17:13:07.127Z,6.40
2022-09-06T17:15:53.749Z,6.35
2022-09-06T17:18:22.330Z,9.88
2022-09-06T17:21:01.016Z,9.48
2022-09-06T17:23:28.048Z,5.78
2022-09-06T17:25:54.732Z,5.63
2022-09-06T17:28:22.035Z,8.50
2022-09-06T17:30:49.297Z,10.32
2022-09-06T17:33:17.670Z,9.05
2022-09-06T17:35:45.662Z,9.80
2022-09-06T17:38:14.072Z,7.72
2022-09-06T17:40:40.723Z,9.32
2022-09-06T17:43:07.451Z,6.88
2022-09-06T17:45:44.926Z,5.53
2022-09-06T17:48:11.622Z,4.22
2022-09-06T17:50:40.120Z,3.72
2022-09-06T17:53:06.837Z,3.55
2022-09-06T17:55:33.475Z,4.13
2022-09-06T17:58:00.198Z,4.22
2022-09-06T18:00:26.877Z,3.70
2022-09-06T18:02:54.353Z,4.45
2022-09-06T18:05:21.230Z,5.13
2022-09-06T18:07:48.089Z,5.38
2022-09-06T18:10:15.227Z,4.38
2022-09-06T18:12:42.690Z,4.25
2022-09-06T18:15:10.333Z,4.60
2022-09-06T18:17:36.988Z,5.55
2022-09-06T18:20:05.248Z,5.32
2022-09-06T18:22:33.050Z,6.68
2022-09-06T18:24:59.768Z,5.47
2022-09-06T18:27:26.509Z,4.22
2022-09-06T18:29:53.426Z,4.65
2022-09-06T18:32:20.336Z,5.40
2022-09-06T18:34:47.214Z,4.65
2022-09-06T18:37:14.580Z,5.25
2022-09-06T18:39:42.488Z,4.95
2022-09-06T18:42:11.497Z,4.95
2022-09-06T18:44:38.286Z,4.28
2022-09-06T18:47:08.042Z,4.88
2022-09-06T18:49:38.503Z,4.03
2022-09-06T18:52:07.732Z,5.05
2022-09-06T18:54:35.284Z,4.68
2022-09-06T18:57:02.162Z,4.75
2022-09-06T18:59:29.198Z,5.53
2022-09-06T19:01:56.487Z,15.73
2022-09-06T19:04:23.786Z,7.53
2022-09-06T19:06:52.970Z,6.95
2022-09-06T19:09:19.992Z,10.25
2022-09-06T19:11:51.609Z,7.90
2022-09-06T19:14:18.824Z,3.38
2022-09-06T19:16:48.044Z,3.42
2022-09-06T19:19:15.130Z,3.20
2022-09-06T19:21:42.775Z,3.58
2022-09-06T19:24:11.805Z,4.05
2022-09-06T19:26:41.952Z,3.95
2022-09-06T19:29:16.036Z,4.63
2022-09-06T19:31:43.944Z,3.50
2022-09-06T19:34:12.462Z,3.67
2022-09-06T19:36:39.524Z,2.72
2022-09-06T19:39:13.352Z,3.88
2022-09-06T19:41:45.040Z,3.13
2022-09-06T19:44:12.352Z,2.72
2022-09-06T19:46:44.867Z,3.78
2022-09-06T19:51:39.869Z,2.92
2022-09-06T19:54:06.553Z,3.88
2022-09-06T19:56:34.813Z,2.80
2022-09-06T19:59:04.711Z,2.20
2022-09-06T20:01:33.635Z,4.20
2022-09-06T20:04:02.911Z,7.28
2022-09-06T20:06:30.394Z,3.58
2022-09-06T20:08:58.630Z,3.58
2022-09-06T20:11:28.100Z,4.63
2022-09-06T20:13:54.997Z,7.43
2022-09-06T20:16:22.336Z,5.78
2022-09-06T20:18:49.168Z,6.15
2022-09-06T20:21:18.456Z,5.50
2022-09-06T20:23:50.530Z,4.80
2022-09-06T20:26:18.401Z,5.13
2022-09-06T20:28:46.123Z,6.40
2022-09-06T20:31:18.131Z,3.92
2022-09-06T20:33:49.383Z,4.78
2022-09-06T20:36:17.360Z,3.65
2022-09-06T20:38:45.274Z,3.90
2022-09-06T20:41:17.235Z,2.60
2022-09-06T20:43:44.353Z,2.92
2022-09-06T20:46:12.294Z,4.03
2022-09-06T20:48:44.247Z,2.95
2022-09-06T20:51:20.011Z,2.75
2022-09-06T20:53:50.812Z,2.50
2022-09-06T20:56:20.248Z,2.78
2022-09-06T20:58:52.537Z,2.50
2022-09-06T21:01:22.553Z,2.53
2022-09-06T21:03:51.710Z,2.63
2022-09-06T21:06:19.393Z,2.60
2022-09-06T21:08:46.708Z,2.55
2022-09-06T21:11:13.495Z,2.50
2022-09-06T21:13:40.382Z,3.03
2022-09-06T21:16:07.560Z,3.05
2022-09-06T21:18:35.200Z,2.80
2022-09-06T21:21:07.083Z,2.95
2022-09-06T21:23:39.016Z,3.10
2022-09-06T21:26:07.982Z,3.63
2022-09-06T21:28:39.989Z,3.42
2022-09-06T21:31:14.963Z,3.10
2022-09-06T21:33:44.262Z,3.08
2022-09-06T21:36:13.807Z,3.38
2022-09-06T21:38:43.156Z,3.10
2022-09-06T21:41:11.090Z,3.17
2022-09-06T21:43:37.878Z,2.72
2022-09-06T21:46:08.085Z,2.47
2022-09-06T21:48:38.666Z,3.00
2022-09-06T21:51:10.248Z,2.72
2022-09-06T21:53:37.624Z,2.50
2022-09-06T21:56:05.414Z,3.03
2022-09-06T21:58:32.894Z,3.10
2022-09-06T22:01:01.171Z,3.08
2022-09-06T22:03:30.598Z,2.70
2022-09-06T22:05:57.955Z,2.90
2022-09-06T22:08:25.356Z,2.75
2022-09-06T22:10:52.372Z,3.00
2022-09-06T22:13:20.476Z,2.63
2022-09-06T22:15:47.399Z,2.15
2022-09-06T22:18:14.153Z,2.50
2022-09-06T22:20:40.839Z,2.72
2022-09-06T22:23:08.508Z,2.25
2022-09-06T22:25:35.225Z,2.30
2022-09-06T22:28:02.056Z,2.53
2022-09-06T22:30:28.737Z,2.33
2022-09-06T22:32:55.452Z,2.10
2022-09-06T22:35:22.300Z,2.60
2022-09-06T22:37:49.195Z,2.30
2022-09-06T22:40:15.983Z,2.38
2022-09-06T22:42:43.449Z,2.13
2022-09-06T22:45:10.415Z,2.20
2022-09-06T22:47:37.070Z,2.55
2022-09-06T22:50:03.997Z,2.38
2022-09-06T22:52:30.632Z,2.20
2022-09-06T22:54:57.283Z,2.40
2022-09-06T22:57:23.968Z,2.10
2022-09-06T22:59:50.653Z,2.10
2022-09-06T23:02:17.316Z,2.33
2022-09-06T23:04:44.042Z,2.50
2022-09-06T23:07:11.004Z,2.00
2022-09-06T23:09:37.684Z,2.25
2022-09-06T23:12:05.165Z,2.10
2022-09-06T23:14:31.885Z,2.45
2022-09-06T23:16:58.535Z,2.33
2022-09-06T23:19:25.193Z,2.15
2022-09-06T23:21:51.949Z,2.33
2022-09-06T23:24:18.609Z,2.30
2022-09-06T23:26:45.343Z,2.03
2022-09-06T23:29:12.854Z,1.70
2022-09-06T23:31:39.646Z,2.08
2022-09-06T23:34:06.498Z,2.80
2022-09-06T23:36:33.296Z,2.25
2022-09-06T23:39:01.841Z,2.08
2022-09-06T23:41:29.115Z,2.28
2022-09-06T23:43:55.853Z,2.17
2022-09-06T23:46:22.529Z,1.98
2022-09-06T23:48:49.371Z,2.05
2022-09-06T23:51:16.127Z,2.22
2022-09-06T23:53:42.987Z,2.05
2022-09-06T23:56:10.131Z,1.88
2022-09-06T23:58:37.812Z,2.08
